EDT,Max TemperatureF,Mean TemperatureF,Min TemperatureF,Max Dew PointF,MeanDew PointF,Min DewpointF,Max Humidity, Mean Humidity, Min Humidity, Max Sea Level PressureIn, Mean Sea Level PressureIn, Min Sea Level PressureIn, Max VisibilityMiles, Mean VisibilityMiles, Min VisibilityMiles, Max Wind SpeedMPH, Mean Wind SpeedMPH, Max Gust SpeedMPH,PrecipitationIn, CloudCover, Events, WindDirDegrees
2013-10-1,78,64,50,61,56,48,100,77,44,30.07,30.02,29.98,10,9,0,8,2,,0.00,1,,297
2013-10-2,82,70,57,64,59,55,100,74,45,30.08,30.04,30.00,10,9,2,13,2,17,0.00,0,,304
2013-10-3,82,70,59,64,61,55,94,76,45,30.11,30.08,30.05,10,9,2,7,1,,0.00,0,,187
2013-10-4,82,71,60,70,63,59,100,78,45,30.08,30.05,30.02,10,6,0,7,1,,0.00,3,,334
2013-10-5,87,74,60,70,63,59,100,76,40,30.08,30.05,30.02,10,8,1,7,1,,0.00,0,,319
2013-10-6,84,74,64,70,66,63,100,76,51,30.04,30.01,29.97,10,8,2,12,4,18,0.00,0,,161
2013-10-7,80,70,60,72,65,50,94,85,63,30.03,29.91,29.83,10,9,3,21,9,32,0.00,6,,176
2013-10-8,62,58,55,52,47,45,72,62,52,30.26,30.19,30.04,10,10,10,15,7,20,0.00,0,,8
2013-10-9,60,58,55,57,53,48,94,80,67,30.26,30.22,30.14,10,9,5,15,8,23,0.00,4,,23
2013-10-10,62,58,55,61,58,55,100,94,88,30.14,30.01,29.90,10,5,2,17,11,24,0.00,8,,18
2013-10-11,68,65,62,66,63,61,100,93,88,29.95,29.89,29.86,10,5,0,12,8,20,0.00,8,,27
2013-10-12,64,62,60,63,61,61,100,94,88,30.11,30.03,29.93,10,6,2,14,8,21,0.00,8,,36
2013-10-13,64,62,60,63,58,54,100,86,73,30.31,30.22,30.11,10,8,3,14,9,23,0.00,6,,50
2013-10-14,69,61,53,57,54,52,94,80,60,30.31,30.27,30.22,10,10,7,10,7,16,0.00,4,,30
2013-10-15,69,61,53,59,54,50,94,81,60,30.24,30.16,30.08,10,10,7,10,5,17,0.00,3,,33
2013-10-16,69,63,57,63,60,55,94,88,73,30.08,30.01,29.94,10,8,0,5,1,,0.00,4,,18
2013-10-17,75,68,60,66,62,59,100,84,61,29.94,29.86,29.77,10,7,2,12,4,16,0.00,3,,179
2013-10-18,69,60,50,64,46,41,94,63,45,30.02,29.95,29.79,10,10,5,15,8,25,0.00,1,,306
2013-10-19,62,54,46,61,52,45,100,88,68,30.01,29.91,29.81,10,9,3,9,2,,0.00,4,,150
2013-10-20,60,51,42,55,40,34,94,61,36,30.11,30.02,29.85,10,10,10,17,7,25,0.00,0,,315
2013-10-21,66,52,37,50,43,36,93,74,40,30.17,30.10,30.00,10,10,7,10,2,,0.00,0,,175
2013-10-22,64,57,50,54,50,46,94,81,56,29.99,29.87,29.81,10,10,10,7,2,,0.00,1,,304
2013-10-23,57,50,42,50,42,36,100,74,47,29.87,29.75,29.64,10,9,2,14,6,22,0.00,6,,343
2013-10-24,53,47,41,41,33,30,71,59,44,30.12,30.02,29.87,10,10,10,14,9,21,0.00,2,,288
2013-10-25,55,48,41,36,34,32,76,61,41,30.32,30.22,30.12,10,10,10,15,7,21,0.00,0,,298
2013-10-26,59,46,32,41,33,30,100,65,34,30.31,30.16,29.96,10,10,10,15,3,24,0.00,1,,200
2013-10-27,60,50,39,41,37,34,87,61,39,30.15,30.04,29.95,10,10,10,13,5,18,0.00,1,,288
2013-10-28,62,50,37,50,41,36,93,77,39,30.28,30.21,30.15,10,10,7,7,1,,0.00,0,,330
2013-10-29,62,52,41,50,45,39,100,78,48,30.36,30.32,30.27,10,9,3,8,2,,0.00,0,,9
2013-10-30,62,54,46,57,52,46,100,89,68,30.33,30.24,30.17,10,8,4,9,1,,0.00,4,,147
2013-10-31,69,60,50,64,57,50,100,86,73,30.20,30.06,29.87,10,7,0,14,4,20,0.00,3,,162